Terminal Aerodrome Forecast
Issued by NWS Kansas City/Pleasant Hill, MO

Home | Current Version | Previous Version | Text Only | Print | Product List | Glossary On
Versions: 1 2 3 4 5 6 7 8 9 10 11 12
746
FTUS43 KEAX 132323
TAFMCI
TAF
KMCI 132323Z 1400/1424 32011KT P6SM SKC
     FM140300 34008KT P6SM SCT035
     FM140600 34005KT P6SM BKN020
     FM142100 30007KT P6SM SCT040 OVC100=

USA.gov is the U.S. government's official web portal to all federal, state and local government web resources and services.